Latest Weather Observations for Hobart Airport

IDT60801

Issued at 1:01 pm EST Sunday 30 August 2015 (issued every 30 minutes, with the page automatically refreshed every 10 minutes)

About weather observations | Map of weather stations | Latest weather observations for TAS | Other Formats
Station Details ID: 094008 Name: HOBART AIRPORT Lat: -42.83 Lon: 147.50 Height: 4.0 m
Data from the previous 72 hours. | See also: Recent months at Hobart Airport
Date/Time
EST
Temp
°C
App
Temp
°C
Dew
Point
Rel
Hum
%
Delta-T
°C
Wind Press
QNH
hPa
Press
MSL
hPa
Rain
since 9 am
mm
Dir
 
Spd
km/h
Gust
km/h
Spd
kts
Gust
kts
30/12:30pm 8.1 3.3 5.6 84 1.1 SSW 20 32 11 17 1024.7 1024.8 0.2
30/12:00pm 8.8 3.8 4.7 75 1.8 S 20 32 11 17 1025.2 1025.3 0.2
30/11:30am 9.2 2.9 3.6 68 2.4 SSW 26 37 14 20 1025.5 1025.6 0.2
30/11:00am 8.7 2.8 3.8 71 2.1 SSW 24 37 13 20 1025.7 1025.8 0.2
30/10:30am 9.0 3.4 5.2 77 1.7 SSW 24 39 13 21 1025.7 1025.8 0.2
30/10:00am 8.2 3.1 5.8 85 1.1 SSW 22 30 12 16 1026.0 1026.1 0.2
30/09:30am 7.6 2.5 6.0 90 0.7 SSW 22 33 12 18 1026.3 1026.4 0.2
30/09:00am 7.0 1.1 5.9 93 0.5 S 26 35 14 19 1026.2 1026.3 2.6
30/08:30am 7.1 1.6 5.8 91 0.6 S 24 39 13 21 1025.9 1026.0 2.6
30/08:13am 7.5 2.0 5.7 88 0.8 SSW 24 33 13 18 1025.8 1025.9 2.2
30/08:00am 7.6 3.0 5.6 87 0.9 SSW 19 26 10 14 1025.7 1025.8 2.2
30/07:30am 6.7 1.8 5.3 91 0.6 SSW 20 30 11 16 1025.5 1025.6 2.2
30/07:10am 6.9 1.2 5.1 88 0.8 SSW 24 32 13 17 1025.4 1025.5 2.0
30/07:00am 6.9 2.6 5.1 88 0.8 SSW 17 26 9 14 1025.3 1025.4 2.0
30/06:30am 6.5 2.2 5.4 93 0.5 SSW 17 26 9 14 1025.1 1025.2 2.0
30/06:12am 6.6 1.3 5.2 91 0.6 SSW 22 30 12 16 1025.0 1025.1 1.8
30/06:00am 6.4 2.5 5.3 93 0.5 SSW 15 24 8 13 1024.9 1025.0 1.8
30/05:52am 6.4 2.1 5.3 93 0.5 SW 17 26 9 14 1024.9 1025.0 1.8
30/05:38am 6.4 1.7 5.3 93 0.5 SW 19 28 10 15 1024.8 1024.9 1.8
30/05:30am 6.4 1.2 5.3 93 0.5 SSW 22 30 12 16 1024.8 1024.9 1.6
30/05:20am 6.4 1.5 5.3 93 0.5 SW 20 32 11 17 1024.8 1024.9 1.6
30/05:06am 6.2 1.8 4.8 91 0.6 SW 17 26 9 14 1024.8 1024.9 1.4
30/05:00am 6.1 1.7 4.9 92 0.5 SW 17 26 9 14 1024.7 1024.8 1.4
30/04:49am 6.2 1.4 4.8 91 0.6 SSW 19 30 10 16 1024.8 1024.9 1.4
30/04:36am 6.2 1.7 4.3 88 0.8 SW 17 28 9 15 1024.8 1024.9 1.2
30/04:30am 6.2 1.3 4.3 88 0.8 SW 19 28 10 15 1024.6 1024.7 1.2
30/04:16am 6.4 0.2 4.3 86 0.9 SW 26 35 14 19 1024.6 1024.7 1.2
30/04:00am 6.6 2.0 3.5 80 1.3 SSW 17 30 9 16 1024.5 1024.6 1.2
30/03:30am 6.8 2.1 2.9 76 1.6 SW 17 24 9 13 1024.5 1024.6 1.2
30/03:00am 7.2 1.4 2.1 70 2.1 SSW 22 30 12 16 1024.7 1024.8 1.2
30/02:30am 7.1 1.7 2.5 72 1.9 SW 20 32 11 17 1025.0 1025.1 1.2
30/02:00am 7.0 1.6 2.6 73 1.8 SW 20 28 11 15 1025.2 1025.3 1.2
30/01:30am 7.2 1.8 2.3 71 2.0 SW 20 28 11 15 1025.6 1025.7 1.2
30/01:00am 7.4 1.2 2.3 70 2.1 SSW 24 30 13 16 1025.6 1025.7 1.2
30/12:30am 7.5 2.1 2.4 70 2.1 SSW 20 30 11 16 1025.8 1025.9 1.2
30/12:00am 7.7 1.4 1.5 65 2.5 SSW 24 32 13 17 1025.8 1025.9 1.2
 
Date/Time
EST
Temp
°C
App
Temp
°C
Dew
Point
Rel
Hum
%
Delta-T
°C
Wind Press
QNH
hPa
Press
MSL
hPa
Rain
since 9 am
mm
Dir
 
Spd
km/h
Gust
km/h
Spd
kts
Gust
kts
29/11:30pm 7.8 2.5 1.6 65 2.5 SSW 19 30 10 16 1025.7 1025.8 1.2
29/11:00pm 7.8 1.4 0.8 61 2.8 SSW 24 39 13 21 1025.7 1025.8 1.2
29/10:30pm 7.8 1.0 1.1 62 2.7 SSW 26 33 14 18 1025.7 1025.8 1.2
29/10:00pm 7.8 1.9 1.9 66 2.4 SSW 22 35 12 19 1025.7 1025.8 1.2
29/09:30pm 7.8 1.9 1.6 65 2.5 SSW 22 32 12 17 1025.7 1025.8 1.2
29/09:00pm 7.8 1.6 1.9 66 2.4 SSW 24 39 13 21 1025.5 1025.6 1.2
29/08:30pm 7.8 0.8 1.9 66 2.4 S 28 35 15 19 1025.3 1025.4 1.2
29/08:00pm 8.0 0.3 2.2 67 2.4 S 32 52 17 28 1025.2 1025.3 1.2
29/07:56pm 7.9 0.6 2.3 68 2.3 SSW 30 52 16 28 1025.1 1025.2 1.2
29/07:30pm 7.6 0.5 3.6 76 1.7 SSW 30 39 16 21 1025.1 1025.2 1.2
29/07:15pm 8.2 0.4 1.9 64 2.6 S 32 50 17 27 1024.9 1025.0 1.2
29/07:00pm 7.9 0.4 3.2 72 2.0 SSW 32 48 17 26 1024.7 1024.8 1.2
29/06:42pm 7.7 0.7 4.0 77 1.6 SSW 30 50 16 27 1024.7 1024.8 1.2
29/06:30pm 8.1 1.7 3.4 72 2.0 SSW 26 35 14 19 1024.5 1024.6 1.0
29/06:00pm 8.1 0.6 3.4 72 2.0 SSW 32 39 17 21 1024.2 1024.3 1.0
29/05:30pm 7.9 1.3 4.2 77 1.6 SSW 28 39 15 21 1023.7 1023.8 1.0
29/05:00pm 8.0 0.6 4.1 76 1.7 S 32 39 17 21 1023.4 1023.5 1.0
29/04:30pm 7.7 0.4 4.7 81 1.3 SSW 32 39 17 21 1023.2 1023.3 1.0
29/04:18pm 8.0 0.7 4.6 79 1.5 SSW 32 44 17 24 1023.1 1023.2 1.0
29/04:00pm 8.0 0.5 4.3 77 1.6 S 33 48 18 26 1023.1 1023.2 1.0
29/03:30pm 7.7 1.3 5.2 84 1.1 SSW 28 35 15 19 1023.0 1023.1 1.0
29/03:00pm 7.9 2.3 5.4 84 1.1 SSW 24 44 13 24 1022.9 1023.0 1.0
29/02:40pm 7.8 1.5 5.8 87 0.9 SSW 28 39 15 21 1022.8 1022.9 1.0
29/02:36pm 7.8 1.1 5.8 87 0.9 SSW 30 48 16 26 1022.8 1022.9 0.8
29/02:30pm 7.8 -0.6 5.8 87 0.9 SSW 39 54 21 29 1022.8 1022.9 0.8
29/02:00pm 8.2 0.4 5.0 80 1.4 SSW 35 50 19 27 1022.5 1022.6 0.4
29/01:30pm 8.3 0.0 5.9 85 1.1 SSW 39 59 21 32 1022.5 1022.6 0.2
29/01:23pm 8.5 0.1 5.6 82 1.3 S 39 59 21 32 1022.4 1022.5 0.2
29/01:20pm 8.4 0.3 5.3 81 1.4 S 37 52 20 28 1022.4 1022.5 0.2
29/01:00pm 8.9 0.3 4.6 74 1.9 S 39 54 21 29 1022.3 1022.4 0.2
29/12:30pm 8.5 0.5 5.8 83 1.2 S 37 52 20 28 1022.1 1022.2 0.2
29/12:00pm 8.7 0.3 5.6 81 1.4 S 39 61 21 33 1022.4 1022.5 0.2
29/11:30am 8.7 0.3 5.4 80 1.5 S 39 54 21 29 1022.2 1022.3 0.2
29/11:00am 8.9 1.0 6.1 82 1.3 S 37 52 20 28 1022.1 1022.2 0.2
29/10:30am 9.0 0.1 5.2 77 1.7 S 41 56 22 30 1022.0 1022.1 0.2
29/10:00am 8.9 -0.4 5.1 77 1.7 S 43 59 23 32 1021.9 1022.0 0.2
29/09:30am 8.3 -0.7 6.3 87 0.9 S 43 57 23 31 1021.8 1021.9 0.2
29/09:00am 8.5 -0.8 5.8 83 1.2 S 44 61 24 33 1021.7 1021.8 19.6
29/08:44am 8.7 -0.3 6.3 85 1.1 S 43 61 23 33 1021.5 1021.6 19.6
29/08:43am 8.7 -0.5 6.5 86 1.0 S 44 61 24 33 1021.5 1021.6 19.6
29/08:30am 8.9 0.7 6.7 86 1.0 S 39 59 21 32 1021.3 1021.4 19.6
29/08:21am 8.9 0.3 6.7 86 1.0 S 41 59 22 32 1021.2 1021.3 19.4
29/08:00am 8.9 1.1 6.7 86 1.0 S 37 54 20 29 1020.9 1021.0 19.4
29/07:30am 9.1 1.4 7.0 87 1.0 S 37 48 20 26 1020.4 1020.5 19.0
29/07:00am 9.1 1.0 7.2 88 0.9 S 39 54 21 29 1019.8 1019.9 18.2
29/06:30am 9.1 1.0 7.2 88 0.9 S 39 50 21 27 1019.2 1019.3 17.2
29/06:00am 9.1 2.1 7.0 87 1.0 S 33 46 18 25 1019.0 1019.1 16.2
29/05:30am 8.7 2.7 7.2 90 0.7 SSW 28 39 15 21 1018.8 1018.9 15.8
29/05:00am 8.0 2.3 6.5 90 0.7 SSW 26 33 14 18 1018.5 1018.6 15.0
29/04:30am 6.8 2.0 5.4 91 0.6 SW 20 30 11 16 1018.5 1018.6 14.6
29/04:00am 6.3 1.3 4.7 89 0.7 SW 20 30 11 16 1018.5 1018.6 14.0
29/03:30am 6.2 1.8 4.6 89 0.7 SW 17 20 9 11 1018.6 1018.7 13.6
29/03:25am 6.2 2.2 4.8 91 0.6 SW 15 20 8 11 1018.5 1018.6 13.6
29/03:00am 6.3 1.4 5.2 93 0.5 SSW 20 30 11 16 1018.6 1018.7 13.0
29/02:53am 6.3 1.4 5.2 93 0.5 SSW 20 32 11 17 1018.7 1018.8 13.0
29/02:30am 6.1 2.1 4.7 91 0.6 SSW 15 20 8 11 1018.8 1018.9 12.0
29/02:25am 6.2 1.8 4.6 89 0.7 SSW 17 20 9 11 1018.7 1018.8 11.6
29/02:07am 6.0 1.2 4.4 89 0.7 SSW 19 26 10 14 1018.8 1018.9 11.2
29/02:00am 6.0 1.0 4.4 89 0.7 SSW 20 28 11 15 1018.6 1018.7 11.0
29/01:30am 4.9 1.0 3.2 89 0.7 W 13 17 7 9 1018.6 1018.7 10.0
29/01:00am 5.1 -0.6 2.6 84 1.0 WSW 22 28 12 15 1018.6 1018.7 9.0
29/12:30am 5.6 -0.9 2.4 80 1.3 WSW 26 33 14 18 1018.6 1018.7 8.6
29/12:00am 5.4 -1.9 2.4 81 1.2 WSW 30 39 16 21 1018.8 1018.9 8.6
 
Date/Time
EST
Temp
°C
App
Temp
°C
Dew
Point
Rel
Hum
%
Delta-T
°C
Wind Press
QNH
hPa
Press
MSL
hPa
Rain
since 9 am
mm
Dir
 
Spd
km/h
Gust
km/h
Spd
kts
Gust
kts
28/11:30pm 5.4 -1.9 2.2 80 1.3 WSW 30 41 16 22 1019.0 1019.1 8.6
28/11:24pm 5.2 -2.7 2.5 83 1.1 SW 33 48 18 26 1019.3 1019.4 8.6
28/11:00pm 5.2 -1.8 1.7 78 1.4 WSW 28 41 15 22 1019.0 1019.1 7.8
28/10:30pm 4.5 -2.9 2.0 84 1.0 W 30 39 16 21 1019.6 1019.7 7.8
28/10:00pm 4.0 -3.0 1.7 85 0.9 W 28 37 15 20 1020.2 1020.3 7.6
28/09:30pm 3.9 -2.0 1.6 85 0.9 WNW 22 32 12 17 1020.6 1020.7 7.2
28/09:28pm 3.8 -2.1 1.8 87 0.8 WNW 22 28 12 15 1020.7 1020.8 7.2
28/09:00pm 3.7 -1.3 1.6 86 0.8 W 17 24 9 13 1021.7 1021.8 6.6
28/08:30pm 3.6 -2.0 1.5 86 0.8 WNW 20 28 11 15 1021.8 1021.9 5.6
28/08:25pm 3.7 -1.9 1.4 85 0.9 WNW 20 28 11 15 1021.9 1022.0 5.4
28/08:17pm 3.8 -2.6 1.2 83 1.0 W 24 32 13 17 1022.0 1022.1 5.0
28/08:00pm 4.0 -2.8 1.1 81 1.1 W 26 37 14 20 1022.2 1022.3 4.6
28/07:41pm 3.7 -3.4 1.1 83 1.0 WSW 28 41 15 22 1022.6 1022.7 4.2
28/07:30pm 4.2 -2.6 0.5 77 1.4 WSW 26 39 14 21 1023.0 1023.1 3.8
28/07:00pm 3.9 -2.2 0.5 78 1.3 SW 22 32 12 17 1023.4 1023.5 3.4
28/06:30pm 4.0 -3.9 0.9 80 1.2 SW 32 50 17 27 1023.9 1024.0 3.2
28/06:22pm 4.1 -4.4 0.7 78 1.3 SW 35 52 19 28 1023.9 1024.0 3.0
28/06:00pm 4.7 -2.7 -0.4 69 1.9 WSW 28 37 15 20 1023.8 1023.9 2.6
28/05:30pm 5.2 -1.4 -0.7 66 2.2 SW 24 35 13 19 1023.8 1023.9 2.6
28/05:19pm 4.6 -1.5 0.7 76 1.5 SW 22 33 12 18 1023.8 1023.9 2.6
28/05:05pm 5.5 -1.4 0.0 68 2.1 SW 26 37 14 20 1024.1 1024.2 2.4
28/05:00pm 5.9 -1.5 -0.8 62 2.5 SW 28 37 15 20 1023.9 1024.0 2.4
28/04:30pm 6.5 -3.2 -2.3 53 3.2 SW 39 57 21 31 1024.0 1024.1 2.4
28/04:22pm 7.5 -0.9 -2.3 50 3.6 SSW 32 57 17 31 1023.9 1024.0 2.4
28/04:00pm 7.1 2.2 1.7 68 2.2 S 17 24 9 13 1024.1 1024.2 2.4
28/03:30pm 7.0 -0.2 0.6 64 2.5 S 28 39 15 21 1024.3 1024.4 2.2
28/03:00pm 6.9 -0.2 1.1 66 2.3 SSW 28 41 15 22 1024.5 1024.6 2.2
28/02:30pm 5.0 -2.1 1.4 77 1.4 SSW 28 41 15 22 1024.9 1025.0 2.2
28/02:03pm 6.1 -1.8 1.3 71 1.9 S 32 52 17 28 1024.9 1025.0 2.0
28/02:00pm 6.5 -0.2 1.2 69 2.1 S 26 44 14 24 1024.9 1025.0 2.0
28/01:49pm 6.0 -2.0 1.5 73 1.8 S 33 52 18 28 1025.0 1025.1 2.0
28/01:30pm 7.2 -1.4 0.0 60 2.8 S 35 44 19 24 1025.2 1025.3 2.0
28/01:00pm 5.9 -1.8 3.2 83 1.1 S 33 59 18 32 1025.4 1025.5 2.0
28/12:57pm 8.3 0.6 0.2 56 3.2 SSW 30 52 16 28 1025.3 1025.4 2.0
28/12:30pm 7.5 -0.4 1.0 63 2.6 SSW 32 50 17 27 1025.8 1025.9 2.0
28/12:04pm 5.9 -1.6 1.1 71 1.9 S 30 48 16 26 1026.2 1026.3 2.0
28/12:00pm 6.6 0.3 1.6 70 2.0 SSW 24 46 13 25 1026.2 1026.3 2.0
28/11:30am 6.5 -1.0 1.5 70 2.0 SW 30 39 16 21 1026.6 1026.7 2.0
28/11:04am 4.7 -3.3 1.9 82 1.1 SSW 33 52 18 28 1026.9 1027.0 2.0
28/11:00am 4.6 -4.2 1.5 80 1.2 SSW 37 52 20 28 1026.8 1026.9 1.8
28/10:51am 4.6 -2.4 1.8 82 1.1 SSW 28 50 15 27 1026.9 1027.0 1.4
28/10:46am 7.6 1.6 3.1 73 1.9 SSW 24 32 13 17 1026.6 1026.7 0.6
28/10:30am 7.1 0.8 3.5 78 1.5 SW 26 33 14 18 1026.7 1026.8 0.6
28/10:00am 4.7 -2.3 1.9 82 1.1 S 28 48 15 26 1027.0 1027.1 0.6
28/09:57am 4.5 -3.8 2.0 84 1.0 S 35 54 19 29 1027.1 1027.2 0.6
28/09:46am 4.8 -2.6 1.8 81 1.2 SSW 30 50 16 27 1027.0 1027.1 0.2
28/09:42am 6.6 0.0 1.9 72 1.9 SSW 26 35 14 19 1026.8 1026.9 0.0
28/09:30am 6.6 -1.7 2.2 73 1.8 SSW 35 48 19 26 1026.7 1026.8 0.0
28/09:00am 6.7 0.0 -1.0 58 2.9 SSW 24 41 13 22 1026.7 1026.8 1.6
28/08:30am 5.4 0.8 1.3 75 1.6 SSW 15 24 8 13 1026.6 1026.7 1.6
28/08:00am 5.1 1.7 2.1 81 1.2 SW 9 15 5 8 1026.4 1026.5 1.6
28/07:30am 4.7 -0.5 2.2 84 1.0 SSW 19 26 10 14 1026.2 1026.3 1.6
28/07:00am 5.7 -0.4 0.2 68 2.1 SSW 22 32 12 17 1025.8 1025.9 1.4
28/06:30am 5.8 -2.1 0.9 71 1.9 SSW 32 41 17 22 1025.4 1025.5 1.4
28/06:00am 5.9 -0.8 1.3 72 1.8 SSW 26 39 14 21 1024.8 1024.9 1.4
28/05:30am 6.1 -0.1 1.9 74 1.7 SW 24 33 13 18 1024.7 1024.8 1.4
28/05:00am 6.6 -0.3 2.4 74 1.7 SSW 28 37 15 20 1024.3 1024.4 1.4
28/04:30am 6.8 -0.4 2.9 76 1.6 SSW 30 37 16 20 1023.8 1023.9 1.4
28/04:00am 6.8 1.6 3.5 79 1.4 SSW 20 32 11 17 1024.2 1024.3 1.0
28/03:30am 6.6 0.1 4.5 86 0.9 SSW 28 37 15 20 1024.1 1024.2 1.0
28/03:00am 6.8 1.8 4.7 86 0.9 SSW 20 33 11 18 1023.9 1024.0 0.8
28/02:30am 7.0 2.2 5.4 89 0.7 SSW 20 32 11 17 1024.0 1024.1 0.8
28/02:15am 7.1 1.6 5.8 91 0.6 SSW 24 33 13 18 1024.0 1024.1 0.6
28/02:00am 7.2 1.4 6.1 93 0.5 SSW 26 35 14 19 1023.9 1024.0 0.6
28/01:30am 7.4 1.6 6.3 93 0.5 SSW 26 41 14 22 1023.7 1023.8 0.4
28/01:08am 7.4 2.3 5.8 90 0.7 SSW 22 30 12 16 1023.5 1023.6 0.0
28/01:00am 7.5 2.3 5.5 87 0.9 SSW 22 30 12 16 1023.6 1023.7 0.0
28/12:30am 6.2 3.7 4.8 91 0.6 W 7 11 4 6 1023.2 1023.3 0.0
28/12:00am 6.0 4.5 5.1 94 0.4 N 2 7 1 4 1023.1 1023.2 0.0
 
Date/Time
EST
Temp
°C
App
Temp
°C
Dew
Point
Rel
Hum
%
Delta-T
°C
Wind Press
QNH
hPa
Press
MSL
hPa
Rain
since 9 am
mm
Dir
 
Spd
km/h
Gust
km/h
Spd
kts
Gust
kts
27/11:30pm 6.2 3.9 4.8 91 0.6 NNW 6 7 3 4 1023.1 1023.2 0.0
27/11:00pm 7.3 4.7 6.0 91 0.6 NNW 9 11 5 6 1023.2 1023.3 0.0
27/10:30pm 8.6 5.6 6.2 85 1.1 NW 11 13 6 7 1023.3 1023.4 0.0
27/10:00pm 8.9 6.7 5.3 78 1.6 WSW 6 7 3 4 1023.4 1023.5 0.0
27/09:30pm 9.5 6.7 5.0 73 2.0 S 9 13 5 7 1023.5 1023.6 0.0
27/09:00pm 9.4 7.0 5.4 76 1.8 SSW 7 9 4 5 1023.4 1023.5 0.0
27/08:30pm 9.5 7.4 6.0 79 1.6 SSW 6 11 3 6 1023.2 1023.3 0.0
27/08:00pm 9.8 6.7 5.6 75 1.9 S 11 15 6 8 1023.2 1023.3 0.0
27/07:30pm 10.0 7.1 4.6 69 2.4 S 9 15 5 8 1023.1 1023.2 0.0
27/07:00pm 10.1 7.2 4.7 69 2.4 SSE 9 11 5 6 1022.8 1022.9 0.0
27/06:30pm 10.0 6.7 6.6 79 1.6 SSE 13 17 7 9 1022.5 1022.6 0.0
27/06:00pm 9.9 6.4 7.1 83 1.3 SSE 15 17 8 9 1022.2 1022.3 0.0
27/05:30pm 10.0 6.0 6.8 80 1.5 SSE 17 22 9 12 1022.0 1022.1 0.0
27/05:00pm 10.2 6.2 6.6 78 1.7 SSE 17 22 9 12 1021.8 1021.9 0.0
27/04:30pm 10.5 6.0 6.2 75 2.0 SSE 19 26 10 14 1021.7 1021.8 0.0
27/04:00pm 11.0 6.7 5.3 68 2.6 SSE 17 20 9 11 1021.6 1021.7 0.0
27/03:30pm 11.1 6.3 5.4 68 2.6 SSE 20 26 11 14 1021.6 1021.7 0.0
27/03:00pm 11.5 8.0 5.4 66 2.8 SE 13 15 7 8 1021.6 1021.7 0.0
27/02:30pm 11.7 8.4 4.4 61 3.3 SE 11 15 6 8 1021.7 1021.8 0.0
27/02:00pm 11.1 7.0 4.4 63 3.0 SSE 15 19 8 10 1021.8 1021.9 0.0
27/01:30pm 11.8 8.1 4.2 59 3.4 SE 13 15 7 8 1021.9 1022.0 0.0

Other Formats:

Comma delimited format used in spreadsheet applications
http://www.bom.gov.au/fwo/IDT60801/IDT60801.94975.axf

JavaScript Object Notation format (JSON) in row-major order
http://www.bom.gov.au/fwo/IDT60801/IDT60801.94975.json